Terminal Aerodrome Forecast
Issued by NWS

Home | Current Version | Previous Version | Text Only | Print | Product List | Glossary On
Versions: 1 2 3 4 5 6 7 8 9 10 11 12 13 14 15 16 17 18 19 20 21 22 23 24
000
FTUS41 KOKX 250800 AAA
TAFSWF
TAF AMD
KSWF 250831Z 2509/2612 25014G24KT 4SM -RA BR BKN012
     FM251000 26016G26KT P6SM SCT020 BKN080
     FM251400 28018G32KT P6SM SCT080 BKN250
     FM252100 28014G24KT P6SM SKC
     FM260000 28008KT P6SM SKC
      AMD NOT SKED=

USA.gov is the U.S. government's official web portal to all federal, state and local government web resources and services.